createdAt,value
2022-10-20T00:13:15.517Z,90.1
2022-10-20T00:33:15.535Z,89.4
2022-10-20T00:53:15.454Z,88.6
2022-10-20T01:13:15.470Z,88.5
2022-10-20T01:33:15.482Z,88.2
2022-10-20T01:53:15.410Z,87.8
2022-10-20T02:13:15.420Z,87.9
2022-10-20T02:33:15.442Z,87.7
2022-10-20T02:53:15.354Z,87.3
2022-10-20T03:13:15.367Z,86.7
2022-10-20T03:33:15.395Z,85.8
2022-10-20T03:53:15.336Z,86.0
2022-10-20T04:13:15.318Z,85.4
2022-10-20T04:33:15.379Z,85.0
2022-10-20T04:53:15.355Z,85.2
2022-10-20T05:13:15.274Z,84.7
2022-10-20T05:33:15.290Z,84.8
2022-10-20T05:53:15.451Z,85.0
2022-10-20T06:13:15.382Z,85.6
2022-10-20T06:33:15.387Z,86.0
2022-10-20T06:53:15.382Z,86.3
2022-10-20T07:13:15.317Z,87.1
2022-10-20T07:33:15.244Z,85.9
2022-10-20T07:53:15.344Z,85.1
2022-10-20T08:13:15.145Z,85.2
2022-10-20T08:33:15.275Z,83.3
2022-10-20T08:53:15.224Z,84.2
2022-10-20T09:13:15.115Z,83.8
2022-10-20T09:33:15.103Z,79.9
2022-10-20T09:53:15.209Z,77.7
2022-10-20T10:13:15.031Z,76.7
2022-10-20T10:33:15.114Z,76.5
2022-10-20T10:53:15.014Z,74.8
2022-10-20T11:13:14.986Z,74.1
2022-10-20T11:33:14.970Z,72.6
2022-10-20T11:53:14.968Z,72.4
2022-10-20T12:13:14.950Z,73.3
2022-10-20T12:33:14.938Z,73.7
2022-10-20T12:53:14.891Z,72.0
2022-10-20T13:13:14.851Z,71.6
2022-10-20T13:33:14.836Z,72.5
2022-10-20T13:53:14.775Z,72.1
2022-10-20T14:13:14.777Z,73.9
2022-10-20T14:33:14.724Z,75.2
2022-10-20T14:53:14.838Z,79.4
2022-10-20T15:13:14.651Z,77.1
2022-10-20T15:33:14.686Z,79.3
2022-10-20T15:53:14.708Z,79.2
2022-10-20T16:13:14.612Z,81.3
2022-10-20T16:33:14.635Z,84.8
2022-10-20T16:53:14.553Z,82.5
2022-10-20T17:13:14.564Z,81.9
2022-10-20T17:33:14.590Z,84.6
2022-10-20T17:53:14.507Z,83.2
2022-10-20T18:13:14.527Z,82.3
2022-10-20T18:33:14.447Z,83.4
2022-10-20T18:53:14.478Z,83.8
2022-10-20T19:13:14.485Z,86.6
2022-10-20T19:33:14.398Z,86.4
2022-10-20T19:53:14.441Z,86.3
2022-10-20T20:13:14.450Z,86.6
2022-10-20T20:33:14.356Z,86.9
2022-10-20T20:53:14.375Z,87.7
2022-10-20T21:13:14.391Z,86.2
2022-10-20T21:33:14.326Z,87.0
2022-10-20T21:53:14.332Z,86.9
2022-10-20T22:13:14.250Z,86.1
2022-10-20T22:33:14.274Z,86.7
2022-10-20T22:53:14.284Z,86.4
2022-10-20T23:13:14.202Z,86.7
2022-10-20T23:33:14.233Z,86.3
2022-10-20T23:53:14.235Z,86.6
